LAN101 SCSE-SCEL
Flight info
| Callsign | LAN101 |
|---|---|
| Flight time | N/A |
| Altitude | 27000 |
| Route | EDRON5 EDRON UL302 SIMOK DCT MOLPU DCT EL483 SUKSA2A |
| Aircraft | A20N/M-SDE2E3FGHIM1RWXYZ/EB1 |
Departure
| Time | 2026-04-21 15:49 |
|---|---|
| Airport | La Florida Airport (SCSE) |
Arrival
| Time | N/A |
|---|---|
| Airport | Comodoro Arturo Merino Benítez International Airport (SCEL) |
| Time | Latitude | Longitude | Altitude | Speed | Heading |
|---|---|---|---|---|---|
| 2026-04-21 15:29 | -29.91623 | -71.20445 | 483 ft | 0 kts | 207° |
| 2026-04-21 15:42 | -29.91624 | -71.20448 | 483 ft | 0 kts | 233° |
| 2026-04-21 15:43 | -29.91624 | -71.20451 | 483 ft | 0 kts | 263° |
| 2026-04-21 15:43 | -29.91621 | -71.20456 | 477 ft | 1 kts | 304° |
| 2026-04-21 15:43 | -29.91609 | -71.20458 | 474 ft | 2 kts | 5° |
| 2026-04-21 15:43 | -29.91594 | -71.20437 | 480 ft | 5 kts | 61° |
| 2026-04-21 15:44 | -29.91585 | -71.20391 | 480 ft | 7 kts | 102° |
| 2026-04-21 15:44 | -29.91603 | -71.20346 | 477 ft | 6 kts | 116° |
| 2026-04-21 15:44 | -29.91597 | -71.20300 | 480 ft | 7 kts | 38° |
| 2026-04-21 15:44 | -29.91548 | -71.20273 | 481 ft | 9 kts | 25° |
| 2026-04-21 15:45 | -29.91532 | -71.20210 | 477 ft | 11 kts | 112° |
| 2026-04-21 15:45 | -29.91574 | -71.20120 | 477 ft | 14 kts | 118° |
| 2026-04-21 15:45 | -29.91625 | -71.20008 | 481 ft | 17 kts | 115° |
| 2026-04-21 15:45 | -29.91677 | -71.19877 | 475 ft | 19 kts | 114° |
| 2026-04-21 15:46 | -29.91737 | -71.19733 | 476 ft | 20 kts | 116° |
| 2026-04-21 15:46 | -29.91796 | -71.19595 | 479 ft | 18 kts | 116° |
| 2026-04-21 15:46 | -29.91852 | -71.19467 | 478 ft | 18 kts | 116° |
| 2026-04-21 15:46 | -29.91906 | -71.19343 | 478 ft | 17 kts | 115° |
| 2026-04-21 15:47 | -29.91957 | -71.19221 | 480 ft | 18 kts | 116° |
| 2026-04-21 15:47 | -29.92012 | -71.19123 | 477 ft | 11 kts | 144° |
| 2026-04-21 15:47 | -29.92041 | -71.19093 | 476 ft | 4 kts | 112° |
| 2026-04-21 15:47 | -29.92027 | -71.19078 | 477 ft | 3 kts | 4° |
| 2026-04-21 15:48 | -29.92009 | -71.19097 | 474 ft | 5 kts | 297° |
| 2026-04-21 15:48 | -29.91968 | -71.19197 | 480 ft | 28 kts | 297° |
| 2026-04-21 15:48 | -29.91780 | -71.19634 | 479 ft | 94 kts | 296° |
| 2026-04-21 15:48 | -29.91419 | -71.20483 | 667 ft | 125 kts | 295° |
| 2026-04-21 15:49 | -29.91022 | -71.21374 | 1200 ft | 126 kts | 297° |
| 2026-04-21 15:49 | -29.90593 | -71.22323 | 1678 ft | 146 kts | 296° |
| 2026-04-21 15:49 | -29.90271 | -71.23074 | 1976 ft | 168 kts | 295° |
| 2026-04-21 15:49 | -29.89526 | -71.24916 | 2500 ft | 210 kts | 295° |
| 2026-04-21 15:50 | -29.89053 | -71.26614 | 2829 ft | 242 kts | 271° |
| 2026-04-21 15:50 | -29.89545 | -71.28505 | 3437 ft | 257 kts | 234° |
| 2026-04-21 15:50 | -29.90440 | -71.29462 | 3886 ft | 265 kts | 211° |
| 2026-04-21 15:50 | -29.92211 | -71.29977 | 4610 ft | 273 kts | 178° |
| 2026-04-21 15:51 | -29.94118 | -71.29691 | 5360 ft | 280 kts | 171° |
| 2026-04-21 15:51 | -29.96077 | -71.29346 | 6093 ft | 288 kts | 173° |
| 2026-04-21 15:51 | -29.98107 | -71.29098 | 6860 ft | 296 kts | 175° |
| 2026-04-21 15:51 | -30.00182 | -71.28936 | 7657 ft | 300 kts | 177° |
| 2026-04-21 15:52 | -30.02280 | -71.28827 | 8489 ft | 304 kts | 178° |
| 2026-04-21 15:52 | -30.04404 | -71.28748 | 9336 ft | 307 kts | 179° |
| 2026-04-21 15:52 | -30.06556 | -71.28685 | 10168 ft | 312 kts | 179° |
| 2026-04-21 15:52 | -30.08770 | -71.28648 | 10629 ft | 331 kts | 181° |
| 2026-04-21 15:53 | -30.11136 | -71.28692 | 11022 ft | 349 kts | 182° |
| 2026-04-21 15:53 | -30.13605 | -71.28766 | 11671 ft | 357 kts | 182° |
| 2026-04-21 15:53 | -30.16104 | -71.28845 | 12438 ft | 361 kts | 183° |
| 2026-04-21 15:53 | -30.18631 | -71.28925 | 13274 ft | 365 kts | 183° |
| 2026-04-21 15:54 | -30.21182 | -71.29006 | 14083 ft | 368 kts | 184° |
| 2026-04-21 15:54 | -30.23754 | -71.29087 | 14811 ft | 371 kts | 184° |
| 2026-04-21 15:54 | -30.26338 | -71.29167 | 15592 ft | 372 kts | 185° |
| 2026-04-21 15:54 | -30.28930 | -71.29248 | 16369 ft | 373 kts | 185° |
| 2026-04-21 15:55 | -30.31539 | -71.29329 | 17138 ft | 375 kts | 186° |
| 2026-04-21 15:55 | -30.34159 | -71.29411 | 17847 ft | 378 kts | 186° |
| 2026-04-21 15:55 | -30.36759 | -71.29492 | 18561 ft | 380 kts | 187° |
| 2026-04-21 15:55 | -30.39420 | -71.29575 | 19155 ft | 383 kts | 187° |
| 2026-04-21 15:56 | -30.42094 | -71.29660 | 19733 ft | 387 kts | 187° |
| 2026-04-21 15:56 | -30.44801 | -71.29745 | 20322 ft | 391 kts | 187° |
| 2026-04-21 15:56 | -30.47534 | -71.29831 | 20905 ft | 394 kts | 187° |
| 2026-04-21 15:56 | -30.50290 | -71.29917 | 21447 ft | 397 kts | 188° |
| 2026-04-21 15:57 | -30.53073 | -71.29970 | 22006 ft | 402 kts | 184° |
| 2026-04-21 15:57 | -30.55885 | -71.29522 | 22523 ft | 416 kts | 170° |
| 2026-04-21 15:57 | -30.58609 | -71.28246 | 23038 ft | 428 kts | 159° |
| 2026-04-21 15:57 | -30.61234 | -71.26655 | 23544 ft | 433 kts | 157° |
| 2026-04-21 15:58 | -30.63891 | -71.24977 | 23993 ft | 437 kts | 157° |
| 2026-04-21 15:58 | -30.66574 | -71.23281 | 24420 ft | 441 kts | 157° |
| 2026-04-21 15:58 | -30.69280 | -71.21578 | 24830 ft | 444 kts | 158° |
| 2026-04-21 15:58 | -30.72020 | -71.19861 | 25236 ft | 448 kts | 158° |
| 2026-04-21 15:59 | -30.74782 | -71.18133 | 25660 ft | 451 kts | 158° |
| 2026-04-21 15:59 | -30.77559 | -71.16397 | 26031 ft | 455 kts | 158° |
| 2026-04-21 15:59 | -30.80358 | -71.14649 | 26428 ft | 458 kts | 158° |
| 2026-04-21 15:59 | -30.83174 | -71.12889 | 26817 ft | 461 kts | 158° |
| 2026-04-21 16:00 | -30.86012 | -71.11115 | 27095 ft | 462 kts | 158° |
| 2026-04-21 16:00 | -30.88806 | -71.09360 | 27131 ft | 450 kts | 158° |
| 2026-04-21 16:00 | -30.91494 | -71.07667 | 27135 ft | 442 kts | 158° |
| 2026-04-21 16:00 | -30.94201 | -71.05966 | 27141 ft | 441 kts | 158° |
| 2026-04-21 16:01 | -30.96901 | -71.04275 | 27141 ft | 440 kts | 159° |
| 2026-04-21 16:01 | -30.99607 | -71.02582 | 27142 ft | 440 kts | 159° |
| 2026-04-21 16:01 | -31.02302 | -71.00893 | 27149 ft | 440 kts | 159° |
| 2026-04-21 16:01 | -31.04995 | -70.99204 | 27149 ft | 439 kts | 159° |
| 2026-04-21 16:02 | -31.07693 | -70.97511 | 27148 ft | 440 kts | 159° |
| 2026-04-21 16:02 | -31.10394 | -70.95815 | 27147 ft | 440 kts | 159° |
| 2026-04-21 16:02 | -31.13090 | -70.94119 | 27151 ft | 440 kts | 159° |
| 2026-04-21 16:02 | -31.15782 | -70.92424 | 27156 ft | 441 kts | 159° |
| 2026-04-21 16:03 | -31.18486 | -70.90720 | 27159 ft | 441 kts | 159° |
| 2026-04-21 16:03 | -31.21149 | -70.89041 | 27165 ft | 441 kts | 159° |
| 2026-04-21 16:03 | -31.23848 | -70.87339 | 27171 ft | 441 kts | 159° |
| 2026-04-21 16:03 | -31.26548 | -70.85635 | 27172 ft | 441 kts | 159° |
| 2026-04-21 16:04 | -31.29247 | -70.83929 | 27177 ft | 441 kts | 159° |
| 2026-04-21 16:04 | -31.32033 | -70.82489 | 27176 ft | 430 kts | 171° |
| 2026-04-21 16:04 | -31.34904 | -70.81743 | 27175 ft | 416 kts | 184° |
| 2026-04-21 16:04 | -31.37759 | -70.81641 | 27176 ft | 408 kts | 190° |
| 2026-04-21 16:05 | -31.40584 | -70.81766 | 27176 ft | 405 kts | 193° |
| 2026-04-21 16:05 | -31.43390 | -70.82010 | 27174 ft | 404 kts | 194° |
| 2026-04-21 16:05 | -31.46191 | -70.82313 | 27172 ft | 403 kts | 195° |
| 2026-04-21 16:05 | -31.48982 | -70.82632 | 27174 ft | 403 kts | 195° |
| 2026-04-21 16:06 | -31.51771 | -70.82946 | 27175 ft | 403 kts | 195° |
| 2026-04-21 16:06 | -31.54562 | -70.83250 | 27175 ft | 403 kts | 194° |
| 2026-04-21 16:06 | -31.57318 | -70.83537 | 27161 ft | 403 kts | 194° |
| 2026-04-21 16:06 | -31.60112 | -70.83821 | 27161 ft | 403 kts | 194° |
| 2026-04-21 16:07 | -31.62915 | -70.84100 | 27160 ft | 403 kts | 194° |
| 2026-04-21 16:07 | -31.65712 | -70.84376 | 27162 ft | 403 kts | 194° |
| 2026-04-21 16:07 | -31.68507 | -70.84650 | 27164 ft | 403 kts | 194° |
| 2026-04-21 16:07 | -31.71302 | -70.84925 | 27146 ft | 403 kts | 195° |
| 2026-04-21 16:08 | -31.76929 | -70.85252 | 27153 ft | 407 kts | 190° |
| 2026-04-21 16:08 | -31.79769 | -70.85269 | 27150 ft | 409 kts | 189° |
| 2026-04-21 16:08 | -31.82630 | -70.85247 | 27152 ft | 409 kts | 189° |
| 2026-04-21 16:09 | -31.85448 | -70.85206 | 27126 ft | 409 kts | 189° |
| 2026-04-21 16:09 | -31.88286 | -70.85157 | 26623 ft | 408 kts | 188° |
| 2026-04-21 16:09 | -31.91130 | -70.85110 | 26002 ft | 408 kts | 188° |
| 2026-04-21 16:09 | -31.93974 | -70.85066 | 25400 ft | 409 kts | 188° |
| 2026-04-21 16:10 | -31.96825 | -70.85024 | 24904 ft | 408 kts | 187° |
| 2026-04-21 16:10 | -31.99671 | -70.84982 | 24386 ft | 406 kts | 187° |
| 2026-04-21 16:10 | -32.02492 | -70.84941 | 23914 ft | 404 kts | 187° |
| 2026-04-21 16:10 | -32.05258 | -70.84901 | 23433 ft | 401 kts | 187° |
| 2026-04-21 16:11 | -32.08045 | -70.84863 | 22875 ft | 399 kts | 187° |
| 2026-04-21 16:11 | -32.10813 | -70.84826 | 22252 ft | 397 kts | 187° |
| 2026-04-21 16:11 | -32.13574 | -70.84792 | 21673 ft | 394 kts | 186° |
| 2026-04-21 16:11 | -32.16290 | -70.84754 | 21335 ft | 388 kts | 186° |
| 2026-04-21 16:12 | -32.18081 | -70.84728 | 21006 ft | 386 kts | 185° |
| 2026-04-21 16:12 | -32.21658 | -70.84681 | 20180 ft | 387 kts | 185° |
| 2026-04-21 16:12 | -32.24336 | -70.84767 | 19668 ft | 380 kts | 193° |
| 2026-04-21 16:12 | -32.26918 | -70.85288 | 19190 ft | 375 kts | 197° |
| 2026-04-21 16:13 | -32.29463 | -70.85935 | 18708 ft | 372 kts | 198° |
| 2026-04-21 16:13 | -32.31985 | -70.86618 | 18130 ft | 370 kts | 198° |
| 2026-04-21 16:13 | -32.34496 | -70.87313 | 17499 ft | 369 kts | 198° |
| 2026-04-21 16:13 | -32.36819 | -70.87963 | 16956 ft | 369 kts | 198° |
| 2026-04-21 16:14 | -32.39286 | -70.88657 | 16370 ft | 368 kts | 198° |
| 2026-04-21 16:14 | -32.41778 | -70.89360 | 15813 ft | 368 kts | 198° |
| 2026-04-21 16:14 | -32.44263 | -70.90061 | 15290 ft | 367 kts | 198° |
| 2026-04-21 16:14 | -32.46743 | -70.90762 | 14729 ft | 366 kts | 197° |
| 2026-04-21 16:15 | -32.49228 | -70.91465 | 14226 ft | 366 kts | 197° |
| 2026-04-21 16:15 | -32.51697 | -70.92162 | 13703 ft | 364 kts | 197° |
| 2026-04-21 16:15 | -32.54150 | -70.92855 | 13175 ft | 361 kts | 197° |
| 2026-04-21 16:15 | -32.55773 | -70.93316 | 12813 ft | 360 kts | 197° |